Time;durP1;ratioP1;P1;durP2;ratioP2;P2;SDS_P1;SDS_P2;PMS_P1;PMS_P2;Temp;Humidity;BMP_temperature;BMP_pressure;BME280_temperature;BME280_humidity;BME280_pressure;Samples;Min_cycle;Max_cycle;Signal;HPM_P1;HPM_P2
2022/01/01 00:01:48;;;;;;;24.83;16.75;;;12.40;99.90;;;;;;12392727;28;20069;-84
2022/01/01 00:07:50;;;;;;;27.65;16.55;;;12.30;99.90;;;;;;12384060;28;20507;-85
2022/01/01 00:13:52;;;;;;;29.80;17.48;;;12.30;99.90;;;;;;12381126;28;20345;-85
2022/01/01 00:19:57;;;;;;;27.77;17.17;;;12.30;99.90;;;;;;12387754;28;20054;-85
2022/01/01 00:26:00;;;;;;;24.15;16.73;;;12.30;99.90;;;;;;12388112;28;20050;-84
2022/01/01 00:32:03;;;;;;;26.42;17.27;;;12.30;99.90;;;;;;12384130;28;20074;-84
2022/01/01 00:38:08;;;;;;;27.40;16.60;;;12.30;99.90;;;;;;12390368;28;20050;-84
2022/01/01 00:44:10;;;;;;;27.13;16.77;;;12.30;99.90;;;;;;12383838;28;21225;-85
2022/01/01 00:50:12;;;;;;;24.92;16.05;;;12.20;99.90;;;;;;12378924;28;20509;-85
2022/01/01 00:56:14;;;;;;;25.42;15.55;;;12.20;99.90;;;;;;12381049;28;20057;-84
2022/01/01 01:02:15;;;;;;;33.25;16.95;;;12.30;99.90;;;;;;12377847;28;20042;-85
2022/01/01 01:08:18;;;;;;;30.00;16.27;;;12.30;99.90;;;;;;12389462;28;20053;-85
2022/01/01 01:14:24;;;;;;;32.67;16.75;;;12.20;99.90;;;;;;12388645;28;20062;-84
2022/01/01 01:20:30;;;;;;;28.70;16.33;;;12.20;99.90;;;;;;12397767;28;20502;-84
2022/01/01 01:26:34;;;;;;;28.27;16.50;;;12.20;99.90;;;;;;12388335;28;20046;-85
2022/01/01 01:32:37;;;;;;;27.40;15.73;;;12.20;99.90;;;;;;12400116;28;20518;-86
2022/01/01 01:38:39;;;;;;;31.30;15.55;;;12.20;99.90;;;;;;12389670;28;20093;-86
2022/01/01 01:44:45;;;;;;;26.20;15.25;;;12.20;99.90;;;;;;12396000;28;20530;-86
2022/01/01 01:50:47;;;;;;;26.77;15.45;;;12.30;99.90;;;;;;12398436;28;20056;-85
2022/01/01 01:56:49;;;;;;;26.85;15.45;;;12.20;99.90;;;;;;12382910;28;20074;-84
2022/01/01 02:02:51;;;;;;;28.88;16.25;;;12.20;99.90;;;;;;12382268;28;20057;-84
2022/01/01 02:08:54;;;;;;;23.83;15.07;;;12.20;99.90;;;;;;12382669;28;20053;-86
2022/01/01 02:28:07;;;;;;;26.42;15.38;;;12.20;99.90;;;;;;12388070;28;20049;-85
2022/01/01 02:34:10;;;;;;;30.75;16.75;;;12.10;99.90;;;;;;12385744;28;20065;-86
2022/01/01 02:40:13;;;;;;;29.50;16.00;;;12.20;99.90;;;;;;12389709;28;20050;-86
2022/01/01 02:46:15;;;;;;;36.10;15.95;;;12.20;99.90;;;;;;12415844;28;20076;-85
2022/01/01 02:52:17;;;;;;;28.45;16.30;;;12.20;99.90;;;;;;12426940;28;20070;-86
2022/01/01 02:58:19;;;;;;;25.98;14.73;;;12.10;99.90;;;;;;12387762;28;20137;-85
2022/01/01 03:04:21;;;;;;;25.35;15.43;;;12.20;99.90;;;;;;12376465;28;20095;-84
2022/01/01 03:10:24;;;;;;;26.67;14.52;;;12.10;99.90;;;;;;12385085;28;20368;-84
2022/01/01 03:16:26;;;;;;;33.30;15.10;;;12.10;99.90;;;;;;12379242;28;20136;-85
2022/01/01 03:22:28;;;;;;;31.42;14.85;;;12.10;99.90;;;;;;12385564;28;20149;-84
2022/01/01 03:28:31;;;;;;;30.45;14.63;;;12.10;99.90;;;;;;12389266;28;20051;-86
2022/01/01 03:34:32;;;;;;;31.17;14.63;;;12.00;99.90;;;;;;12373937;28;20136;-85
2022/01/01 03:40:34;;;;;;;27.50;14.30;;;12.00;99.90;;;;;;12376314;28;20045;-84
2022/01/01 03:46:36;;;;;;;28.33;14.02;;;12.00;99.90;;;;;;12390092;28;20062;-84
2022/01/01 03:52:42;;;;;;;36.70;14.65;;;12.10;99.90;;;;;;12389399;28;20054;-85
2022/01/01 03:58:46;;;;;;;28.05;13.85;;;12.10;99.90;;;;;;12376669;28;20050;-84
2022/01/01 04:04:49;;;;;;;30.80;14.05;;;12.10;99.90;;;;;;12394365;28;20046;-86
2022/01/01 04:10:50;;;;;;;27.52;14.65;;;12.10;99.90;;;;;;12406053;28;20046;-87
2022/01/01 04:16:53;;;;;;;29.60;15.60;;;12.10;99.90;;;;;;12381472;28;20507;-87
2022/01/01 04:22:57;;;;;;;30.17;13.68;;;12.00;99.90;;;;;;12376949;28;20107;-85
2022/01/01 04:28:59;;;;;;;31.60;15.57;;;12.10;99.90;;;;;;12381210;28;20360;-86
2022/01/01 04:35:01;;;;;;;33.25;15.52;;;12.10;99.90;;;;;;12376373;28;20076;-86
2022/01/01 04:41:05;;;;;;;32.83;17.00;;;12.10;99.90;;;;;;12392609;28;20514;-85
2022/01/01 04:47:07;;;;;;;38.30;18.73;;;12.10;99.90;;;;;;12377686;28;20064;-84
2022/01/01 04:53:14;;;;;;;35.33;18.35;;;12.00;99.90;;;;;;12373092;28;20136;-86
2022/01/01 04:59:16;;;;;;;39.15;18.65;;;12.00;99.90;;;;;;12394345;28;20057;-85
2022/01/01 05:05:18;;;;;;;35.42;17.52;;;12.00;99.90;;;;;;12369718;28;20057;-83
2022/01/01 05:11:20;;;;;;;36.90;19.60;;;12.00;99.90;;;;;;12371782;28;20053;-86
2022/01/01 05:17:22;;;;;;;41.92;20.67;;;12.00;99.90;;;;;;12393860;28;20569;-85
2022/01/01 05:23:24;;;;;;;34.70;19.17;;;11.90;99.90;;;;;;12391369;28;20042;-85
2022/01/01 05:29:26;;;;;;;43.25;21.00;;;11.90;99.90;;;;;;12383654;28;20041;-86
2022/01/01 05:35:28;;;;;;;39.05;21.23;;;11.90;99.90;;;;;;12388458;28;20042;-87
2022/01/01 05:41:30;;;;;;;39.75;20.48;;;11.90;99.90;;;;;;12378889;28;20525;-85
2022/01/01 05:47:32;;;;;;;39.88;19.65;;;11.90;99.90;;;;;;12441077;28;20076;-86
2022/01/01 05:53:34;;;;;;;35.83;18.92;;;11.80;99.90;;;;;;12446403;28;20042;-86
2022/01/01 05:59:40;;;;;;;44.72;18.85;;;11.90;99.90;;;;;;12435271;28;20095;-85
2022/01/01 06:05:42;;;;;;;39.75;18.35;;;11.90;99.90;;;;;;12441533;28;20592;-86
2022/01/01 06:11:44;;;;;;;38.28;17.95;;;11.90;99.90;;;;;;12444197;28;20497;-86
2022/01/01 06:17:46;;;;;;;42.42;19.35;;;11.80;99.90;;;;;;12442716;28;20140;-86
2022/01/01 06:23:48;;;;;;;38.10;18.15;;;11.80;99.90;;;;;;12424998;28;20057;-86
2022/01/01 06:29:50;;;;;;;42.20;18.92;;;11.80;99.90;;;;;;12412455;28;20149;-87
2022/01/01 06:35:55;;;;;;;32.08;17.88;;;11.70;99.90;;;;;;12425688;28;20048;-85
2022/01/01 06:41:58;;;;;;;30.65;16.52;;;11.70;99.90;;;;;;12440395;28;20409;-85
2022/01/01 06:48:00;;;;;;;34.65;16.52;;;11.80;99.90;;;;;;12428245;28;20112;-85
2022/01/01 06:54:03;;;;;;;34.05;18.05;;;11.80;99.90;;;;;;12434931;28;20045;-85
2022/01/01 07:00:06;;;;;;;38.53;17.53;;;11.80;99.90;;;;;;12446055;28;20477;-86
2022/01/01 07:06:08;;;;;;;30.70;16.13;;;11.80;99.90;;;;;;12431239;28;20057;-84
2022/01/01 07:12:10;;;;;;;45.50;16.98;;;11.80;99.90;;;;;;12441753;28;20076;-85
2022/01/01 07:18:11;;;;;;;39.72;17.83;;;11.70;99.90;;;;;;12428850;28;20133;-85
2022/01/01 07:24:13;;;;;;;32.60;16.83;;;11.80;99.90;;;;;;12437210;28;20091;-84
2022/01/01 07:30:17;;;;;;;35.08;17.10;;;11.70;99.90;;;;;;12439841;28;20053;-85
2022/01/01 07:36:22;;;;;;;37.45;18.13;;;11.80;99.90;;;;;;12429622;28;20626;-86
2022/01/01 07:42:24;;;;;;;37.97;18.08;;;11.70;99.90;;;;;;12425002;28;20076;-86
2022/01/01 07:48:26;;;;;;;36.55;17.42;;;11.80;99.90;;;;;;12419958;28;20084;-86
2022/01/01 07:54:27;;;;;;;37.10;18.55;;;11.80;99.90;;;;;;12436276;28;20056;-86
2022/01/01 08:00:32;;;;;;;38.47;17.13;;;11.80;99.90;;;;;;12439437;28;20053;-86
2022/01/01 08:06:34;;;;;;;39.97;17.80;;;11.70;99.90;;;;;;12435737;28;20403;-86
2022/01/01 08:12:36;;;;;;;36.50;17.52;;;11.80;99.90;;;;;;12438019;28;20141;-87
2022/01/01 08:18:38;;;;;;;49.53;18.25;;;11.80;99.90;;;;;;12423817;28;20058;-87
2022/01/01 08:24:41;;;;;;;37.42;16.63;;;11.80;99.90;;;;;;12420536;28;20048;-87
2022/01/01 08:30:43;;;;;;;27.60;15.43;;;11.70;99.90;;;;;;12412761;28;20053;-86
2022/01/01 08:36:45;;;;;;;31.25;14.70;;;11.80;99.90;;;;;;12426713;28;20057;-88
2022/01/01 08:42:47;;;;;;;32.47;14.85;;;11.80;99.90;;;;;;12438693;28;20430;-86
2022/01/01 08:48:49;;;;;;;29.85;13.13;;;11.80;99.90;;;;;;12415461;28;20482;-87
2022/01/01 08:54:56;;;;;;;30.70;14.02;;;11.90;99.90;;;;;;12418693;28;20072;-86
2022/01/01 09:00:58;;;;;;;24.60;13.40;;;11.90;99.90;;;;;;12430852;28;20506;-86
2022/01/01 09:07:00;;;;;;;25.77;13.00;;;11.90;99.90;;;;;;12431412;28;20104;-87
2022/01/01 09:13:02;;;;;;;23.98;12.68;;;11.90;99.90;;;;;;12415256;28;20133;-86
2022/01/01 09:19:05;;;;;;;28.35;13.70;;;11.90;99.90;;;;;;12433320;28;20145;-86
2022/01/01 09:25:07;;;;;;;28.02;12.68;;;11.90;99.90;;;;;;12429890;28;20125;-87
2022/01/01 09:31:09;;;;;;;23.02;11.23;;;11.90;99.90;;;;;;12464302;28;20037;-87
2022/01/01 09:37:12;;;;;;;24.20;10.52;;;12.00;99.90;;;;;;12408095;28;20053;-87
2022/01/01 09:43:14;;;;;;;21.52;10.25;;;12.10;99.90;;;;;;12399830;28;20096;-87
2022/01/01 09:49:18;;;;;;;25.20;9.55;;;12.10;99.90;;;;;;12433301;28;20130;-87
2022/01/01 09:55:20;;;;;;;27.33;9.85;;;12.20;99.90;;;;;;12432372;28;20073;-87
2022/01/01 10:01:22;;;;;;;24.67;9.90;;;12.30;99.90;;;;;;12444438;28;20168;-87
2022/01/01 10:07:31;;;;;;;20.90;8.23;;;12.40;99.90;;;;;;12416702;28;20081;-86
2022/01/01 10:13:39;;;;;;;19.67;9.10;;;12.50;99.90;;;;;;12426803;28;20053;-87
2022/01/01 10:19:41;;;;;;;19.33;7.70;;;12.70;99.90;;;;;;12424262;28;20073;-85
2022/01/01 10:32:08;;;;;;;15.70;6.95;;;12.80;99.90;;;;;;12436240;28;20140;-86
2022/01/01 10:38:22;;;;;;;17.50;6.75;;;12.70;99.90;;;;;;12424736;28;20132;-87
2022/01/01 10:44:38;;;;;;;17.55;7.18;;;12.70;99.90;;;;;;12424066;28;20533;-86
2022/01/01 10:50:42;;;;;;;16.33;6.13;;;12.80;99.90;;;;;;12430108;28;21137;-87
2022/01/01 10:56:44;;;;;;;;;;;12.80;99.90;;;;;;12430995;28;20085;-87
2022/01/01 11:02:53;;;;;;;17.23;5.70;;;12.90;99.90;;;;;;12427026;28;19972;-86
2022/01/01 11:08:55;;;;;;;16.77;5.57;;;12.80;99.90;;;;;;12463044;28;20045;-86
2022/01/01 11:15:01;;;;;;;16.23;6.10;;;12.80;99.90;;;;;;12430617;28;20057;-87
2022/01/01 11:21:05;;;;;;;15.48;5.30;;;12.80;99.90;;;;;;12433422;28;20071;-86
2022/01/01 11:27:07;;;;;;;20.37;5.17;;;12.80;99.90;;;;;;12425297;28;20137;-86
2022/01/01 11:33:13;;;;;;;13.65;4.60;;;12.90;99.90;;;;;;12418197;28;20072;-87
2022/01/01 11:39:20;;;;;;;12.43;4.55;;;13.10;99.90;;;;;;12441901;28;20055;-87
2022/01/01 11:45:41;;;;;;;11.23;4.53;;;13.20;99.90;;;;;;12421991;28;20140;-87
2022/01/01 11:51:53;;;;;;;14.32;4.57;;;13.20;99.90;;;;;;12448509;28;20141;-86
2022/01/01 11:57:59;;;;;;;15.45;4.15;;;13.20;99.90;;;;;;12455424;28;20132;-86
2022/01/01 12:04:01;;;;;;;12.88;3.65;;;13.20;99.90;;;;;;12424428;28;20509;-86
2022/01/01 12:10:03;;;;;;;14.70;3.83;;;13.10;99.90;;;;;;12439151;28;20113;-86
2022/01/01 12:16:21;;;;;;;14.75;5.10;;;13.00;99.90;;;;;;12435893;28;20054;-88
2022/01/01 12:22:26;;;;;;;13.70;3.80;;;13.00;99.90;;;;;;12447573;28;20164;-87
2022/01/01 12:28:32;;;;;;;14.88;3.78;;;13.00;99.90;;;;;;12408964;28;20350;-86
2022/01/01 12:34:36;;;;;;;16.70;3.67;;;13.00;99.90;;;;;;12421835;28;20046;-87
2022/01/01 12:40:55;;;;;;;10.23;2.90;;;13.00;99.90;;;;;;12421208;28;20049;-87
2022/01/01 12:47:01;;;;;;;10.55;3.35;;;12.90;99.90;;;;;;12438476;28;20050;-87
2022/01/01 12:53:03;;;;;;;9.90;3.72;;;12.90;99.90;;;;;;12428732;28;20044;-86
2022/01/01 12:59:09;;;;;;;10.50;3.35;;;12.90;99.90;;;;;;12422939;28;20137;-87
2022/01/01 13:05:11;;;;;;;8.00;3.03;;;12.90;99.90;;;;;;12419247;28;20133;-87
2022/01/01 13:11:14;;;;;;;9.60;2.92;;;12.90;99.90;;;;;;12424945;28;20058;-87
2022/01/01 13:17:16;;;;;;;10.85;2.72;;;12.90;99.90;;;;;;12425552;28;20053;-86
2022/01/01 13:23:18;;;;;;;8.55;2.72;;;12.90;99.90;;;;;;12425720;28;20558;-87
2022/01/01 13:29:21;;;;;;;10.27;2.55;;;12.90;99.90;;;;;;12418905;28;20050;-87
2022/01/01 13:35:25;;;;;;;12.68;3.40;;;12.90;99.90;;;;;;12424168;28;20552;-86
2022/01/01 13:41:42;;;;;;;10.73;2.80;;;12.90;99.90;;;;;;12440482;28;20409;-87
2022/01/01 13:47:44;;;;;;;16.77;2.95;;;12.90;99.90;;;;;;12440314;28;20081;-85
2022/01/01 13:53:47;;;;;;;11.88;2.35;;;12.90;99.90;;;;;;12441420;28;20845;-87
2022/01/01 13:59:54;;;;;;;8.10;3.00;;;12.90;99.90;;;;;;12441296;28;20128;-87
2022/01/01 14:05:56;;;;;;;11.40;2.70;;;12.80;99.90;;;;;;12421155;28;20519;-87
2022/01/01 14:11:58;;;;;;;8.18;2.17;;;12.90;99.90;;;;;;12431174;28;20490;-86
2022/01/01 14:18:12;;;;;;;9.75;2.50;;;12.80;99.90;;;;;;12428268;28;20045;-86
2022/01/01 14:24:17;;;;;;;12.00;2.80;;;12.80;99.90;;;;;;12446363;28;20053;-87
2022/01/01 14:30:19;;;;;;;8.25;2.25;;;12.80;99.90;;;;;;12434026;28;20056;-87
2022/01/01 14:36:21;;;;;;;12.98;2.85;;;12.70;99.90;;;;;;12429252;28;20546;-86
2022/01/01 14:42:23;;;;;;;7.97;2.28;;;12.70;99.90;;;;;;12422385;28;20361;-85
2022/01/01 14:48:39;;;;;;;8.57;2.40;;;12.70;99.90;;;;;;12380648;28;20053;-86
2022/01/01 14:54:59;;;;;;;10.75;2.15;;;12.80;99.90;;;;;;12404076;28;20072;-87
2022/01/01 15:01:01;;;;;;;7.10;2.40;;;12.80;99.90;;;;;;12392398;28;20073;-87
2022/01/01 15:07:11;;;;;;;8.20;2.38;;;12.80;99.90;;;;;;12354333;28;20085;-88
2022/01/01 15:13:13;;;;;;;9.07;2.20;;;12.90;99.90;;;;;;12367695;28;20038;-87
2022/01/01 15:19:15;;;;;;;8.70;2.20;;;12.90;99.90;;;;;;12371730;28;20116;-86
2022/01/01 15:25:19;;;;;;;8.95;1.92;;;12.80;99.90;;;;;;12375061;28;20170;-87
2022/01/01 15:31:33;;;;;;;7.90;2.40;;;12.70;99.90;;;;;;12374562;28;20054;-87
2022/01/01 15:37:38;;;;;;;12.63;2.83;;;12.80;99.90;;;;;;12382400;28;20558;-86
2022/01/01 15:43:40;;;;;;;13.23;3.08;;;12.70;99.90;;;;;;12399780;28;20089;-87
2022/01/01 15:49:43;;;;;;;10.93;3.00;;;12.80;99.90;;;;;;12442784;28;20144;-87
2022/01/01 15:55:59;;;;;;;10.85;3.35;;;12.70;99.90;;;;;;12430398;28;20037;-86
2022/01/01 16:02:34;;;;;;;7.13;2.92;;;12.70;99.90;;;;;;12417870;28;20132;-86
2022/01/01 16:08:47;;;;;;;7.18;2.72;;;12.60;99.90;;;;;;12372389;28;20471;-87
2022/01/01 16:15:06;;;;;;;10.40;2.58;;;12.50;99.90;;;;;;12373261;28;20209;-87
2022/01/01 16:21:11;;;;;;;8.90;2.72;;;12.50;99.90;;;;;;12381863;28;20061;-86
2022/01/01 16:27:14;;;;;;;4.40;2.20;;;12.60;99.90;;;;;;12372854;28;20057;-86
2022/01/01 16:33:17;;;;;;;5.55;1.92;;;12.60;99.90;;;;;;12379603;28;20056;-87
2022/01/01 16:39:21;;;;;;;9.10;2.38;;;12.50;99.90;;;;;;12382748;28;20045;-88
2022/01/01 16:45:27;;;;;;;6.18;2.28;;;12.40;99.90;;;;;;12375865;28;20046;-86
2022/01/01 16:51:38;;;;;;;7.30;2.70;;;12.30;99.90;;;;;;12386366;28;20041;-87
2022/01/01 16:57:43;;;;;;;10.18;2.42;;;12.20;99.90;;;;;;12389809;28;20053;-86
2022/01/01 17:03:49;;;;;;;8.10;2.63;;;12.20;99.90;;;;;;12371019;28;20108;-87
2022/01/01 17:09:53;;;;;;;7.53;2.05;;;12.30;99.90;;;;;;12372468;28;20062;-86
2022/01/01 17:16:04;;;;;;;;;;;12.20;99.90;;;;;;12390573;28;20109;-87
2022/01/01 17:22:15;;;;;;;9.15;2.45;;;12.10;99.90;;;;;;12386935;28;20395;-86
2022/01/01 17:28:44;;;;;;;5.70;2.40;;;11.80;99.90;;;;;;12366772;28;20418;-87
2022/01/01 17:41:07;;;;;;;6.20;2.15;;;12.00;99.90;;;;;;12383845;28;20053;-86
2022/01/01 17:47:21;;;;;;;7.47;2.37;;;12.00;99.90;;;;;;12391870;28;20061;-88
2022/01/01 17:53:22;;;;;;;8.25;2.50;;;11.90;99.90;;;;;;12424545;28;20419;-86
2022/01/01 17:59:25;;;;;;;10.93;2.88;;;11.80;99.90;;;;;;12388858;28;20057;-87
2022/01/01 18:05:30;;;;;;;7.60;2.85;;;11.60;99.90;;;;;;12395702;28;20092;-87
2022/01/01 18:11:36;;;;;;;6.78;2.75;;;11.60;99.90;;;;;;12381004;28;20046;-86
2022/01/01 18:17:47;;;;;;;7.53;2.80;;;11.60;99.90;;;;;;12392846;28;20058;-86
2022/01/01 18:23:55;;;;;;;11.48;2.58;;;11.60;99.90;;;;;;12396975;28;20164;-86
2022/01/01 18:29:58;;;;;;;7.20;2.72;;;11.50;99.90;;;;;;12395793;28;20442;-86
2022/01/01 18:36:01;;;;;;;7.00;2.70;;;11.50;99.90;;;;;;12387987;28;20041;-87
2022/01/01 18:42:05;;;;;;;;;;;11.40;99.90;;;;;;12378588;28;20509;-87
2022/01/01 18:48:08;;;;;;;10.18;2.45;;;11.40;99.90;;;;;;12382065;28;20016;-86
2022/01/01 18:54:18;;;;;;;6.35;2.63;;;11.40;99.90;;;;;;12397187;28;20046;-86
2022/01/01 19:00:21;;;;;;;6.22;2.58;;;11.30;99.90;;;;;;12395877;28;20068;-86
2022/01/01 19:06:24;;;;;;;7.25;2.60;;;11.30;99.90;;;;;;12391564;28;20100;-86
2022/01/01 19:12:28;;;;;;;9.37;2.93;;;11.30;99.90;;;;;;12379771;28;20061;-87
2022/01/01 19:18:31;;;;;;;9.43;2.75;;;11.20;99.90;;;;;;12378834;28;20495;-85
2022/01/01 19:24:36;;;;;;;6.78;2.88;;;11.20;99.90;;;;;;12382525;28;20050;-86
2022/01/01 19:30:40;;;;;;;8.95;3.22;;;11.10;99.90;;;;;;12387400;28;20081;-86
2022/01/01 19:36:42;;;;;;;7.70;2.95;;;11.10;99.90;;;;;;12374943;28;20054;-86
2022/01/01 19:43:03;;;;;;;8.30;3.00;;;11.00;99.90;;;;;;12390723;28;20054;-86
2022/01/01 19:49:09;;;;;;;7.25;3.25;;;11.00;99.90;;;;;;12402369;28;20420;-86
2022/01/01 19:55:14;;;;;;;8.73;2.60;;;11.00;99.90;;;;;;12380554;28;20045;-86
2022/01/01 20:01:16;;;;;;;;;;;11.00;99.90;;;;;;12378702;28;20615;-86
2022/01/01 20:07:18;;;;;;;7.25;2.53;;;11.10;99.90;;;;;;12376421;28;19925;-86
2022/01/01 20:13:21;;;;;;;6.65;2.33;;;11.20;99.90;;;;;;12383321;28;20046;-87
2022/01/01 20:19:23;;;;;;;6.97;2.42;;;11.20;99.90;;;;;;12393119;28;20613;-86
2022/01/01 20:25:27;;;;;;;5.47;2.45;;;11.00;99.90;;;;;;12391734;28;20057;-86
2022/01/01 20:31:29;;;;;;;6.13;2.53;;;11.00;99.90;;;;;;12380576;28;20053;-86
2022/01/01 20:37:31;;;;;;;5.90;2.33;;;10.90;99.90;;;;;;12376379;28;20097;-86
2022/01/01 20:43:33;;;;;;;7.85;2.53;;;10.90;99.90;;;;;;12379814;28;20081;-87
2022/01/01 20:49:36;;;;;;;6.32;2.40;;;10.90;99.90;;;;;;12375710;28;20055;-87
2022/01/01 20:55:38;;;;;;;4.93;2.30;;;11.00;99.90;;;;;;12389338;28;20112;-86
2022/01/01 21:01:40;;;;;;;5.07;2.25;;;11.00;99.90;;;;;;12374900;28;20129;-85
2022/01/01 21:07:42;;;;;;;6.43;2.83;;;11.00;99.90;;;;;;12373217;28;20062;-87
2022/01/01 21:13:45;;;;;;;4.70;1.90;;;11.00;99.90;;;;;;12404415;28;20050;-86
2022/01/01 21:19:47;;;;;;;5.70;2.05;;;11.00;99.90;;;;;;12396399;28;20409;-85
2022/01/01 21:25:49;;;;;;;5.32;2.30;;;11.10;99.90;;;;;;12388062;28;20498;-86
2022/01/01 21:31:51;;;;;;;6.22;2.30;;;11.20;99.90;;;;;;12388035;28;21001;-87
2022/01/01 21:37:53;;;;;;;6.72;2.22;;;11.20;99.90;;;;;;12389302;28;20049;-85
2022/01/01 21:43:55;;;;;;;5.30;2.20;;;11.20;99.90;;;;;;12383884;28;20482;-85
2022/01/01 21:49:57;;;;;;;5.97;2.40;;;11.20;99.90;;;;;;12399954;28;20081;-87
2022/01/01 21:55:59;;;;;;;5.43;2.28;;;11.20;99.90;;;;;;12385943;28;20113;-86
2022/01/01 22:02:02;;;;;;;5.55;2.35;;;11.10;99.90;;;;;;12387798;28;20407;-85
2022/01/01 22:08:08;;;;;;;3.38;2.15;;;11.20;99.90;;;;;;12384368;28;20082;-84
2022/01/01 22:14:10;;;;;;;5.97;2.50;;;11.30;99.90;;;;;;12381229;28;20616;-86
2022/01/01 22:20:12;;;;;;;4.05;2.15;;;11.30;99.90;;;;;;12385117;28;20069;-86
2022/01/01 22:26:14;;;;;;;4.40;2.40;;;11.20;99.90;;;;;;12396588;28;20054;-86
2022/01/01 22:32:16;;;;;;;5.00;2.55;;;11.20;99.90;;;;;;12381972;28;20042;-85
2022/01/01 22:38:18;;;;;;;5.85;2.63;;;11.10;99.90;;;;;;12394818;28;20092;-85
2022/01/01 22:44:21;;;;;;;4.43;2.30;;;11.00;99.90;;;;;;12408344;28;20050;-86
2022/01/01 22:50:25;;;;;;;5.28;2.42;;;11.00;99.90;;;;;;12383684;28;20424;-86
2022/01/01 22:56:28;;;;;;;5.18;2.40;;;11.10;99.90;;;;;;12380451;28;20084;-84
2022/01/01 23:02:29;;;;;;;3.78;2.20;;;11.00;99.90;;;;;;12383406;28;20514;-85
2022/01/01 23:08:33;;;;;;;5.35;2.67;;;11.00;99.90;;;;;;12382186;28;20061;-86
2022/01/01 23:14:36;;;;;;;4.50;2.60;;;10.90;99.90;;;;;;12384781;28;20046;-87
2022/01/01 23:20:39;;;;;;;5.67;2.40;;;10.90;99.90;;;;;;12385220;28;20531;-86
2022/01/01 23:26:46;;;;;;;5.07;2.80;;;10.90;99.90;;;;;;12378809;28;20123;-86
2022/01/01 23:32:50;;;;;;;4.72;2.53;;;10.90;99.90;;;;;;12394506;28;20473;-87
2022/01/01 23:38:52;;;;;;;3.95;2.40;;;11.00;99.90;;;;;;12369822;28;20065;-87
2022/01/01 23:44:55;;;;;;;4.65;2.40;;;11.00;99.90;;;;;;12378526;28;20054;-86
2022/01/01 23:51:02;;;;;;;3.80;1.98;;;11.00;99.90;;;;;;12386060;28;20161;-85
2022/01/01 23:57:09;;;;;;;3.85;2.38;;;11.10;99.90;;;;;;12386738;28;20050;-86
